sensor_id;sensor_type;location;lat;lon;timestamp;temperature;humidity
15877;DHT22;8037;51.666;7.834;2022-08-01T00:23:34;21.20;99.90
15877;DHT22;8037;51.666;7.834;2022-08-01T00:28:26;21.20;99.90
15877;DHT22;8037;51.666;7.834;2022-08-01T00:30:51;21.20;99.90
15877;DHT22;8037;51.666;7.834;2022-08-01T00:33:17;21.20;99.90
15877;DHT22;8037;51.666;7.834;2022-08-01T00:52:46;21.00;99.90
15877;DHT22;8037;51.666;7.834;2022-08-01T00:55:12;21.00;99.90
15877;DHT22;8037;51.666;7.834;2022-08-01T00:57:38;21.00;99.90
15877;DHT22;8037;51.666;7.834;2022-08-01T01:00:05;21.00;99.90
15877;DHT22;8037;51.666;7.834;2022-08-01T01:02:31;21.00;99.90
15877;DHT22;8037;51.666;7.834;2022-08-01T01:07:32;21.00;99.90
15877;DHT22;8037;51.666;7.834;2022-08-01T01:10:11;21.10;99.90
15877;DHT22;8037;51.666;7.834;2022-08-01T01:15:47;21.00;99.90
15877;DHT22;8037;51.666;7.834;2022-08-01T01:18:28;20.90;99.90
15877;DHT22;8037;51.666;7.834;2022-08-01T01:29:52;21.10;99.90
15877;DHT22;8037;51.666;7.834;2022-08-01T01:32:31;25.00;99.90
15877;DHT22;8037;51.666;7.834;2022-08-01T01:37:26;21.10;99.90
15877;DHT22;8037;51.666;7.834;2022-08-01T01:39:53;21.10;99.90
15877;DHT22;8037;51.666;7.834;2022-08-01T01:42:20;21.10;99.90
15877;DHT22;8037;51.666;7.834;2022-08-01T01:44:49;21.10;99.90
15877;DHT22;8037;51.666;7.834;2022-08-01T01:47:16;21.00;99.90
15877;DHT22;8037;51.666;7.834;2022-08-01T01:49:44;21.00;99.90
15877;DHT22;8037;51.666;7.834;2022-08-01T01:52:13;21.00;99.90
15877;DHT22;8037;51.666;7.834;2022-08-01T01:54:45;21.00;99.90
15877;DHT22;8037;51.666;7.834;2022-08-01T01:57:12;21.00;99.90
15877;DHT22;8037;51.666;7.834;2022-08-01T01:59:39;21.00;99.90
15877;DHT22;8037;51.666;7.834;2022-08-01T02:02:07;21.00;99.90
15877;DHT22;8037;51.666;7.834;2022-08-01T02:04:36;21.00;99.90
15877;DHT22;8037;51.666;7.834;2022-08-01T02:09:30;21.00;99.90
15877;DHT22;8037;51.666;7.834;2022-08-01T02:11:57;21.00;99.90
15877;DHT22;8037;51.666;7.834;2022-08-01T02:14:24;20.90;99.90
15877;DHT22;8037;51.666;7.834;2022-08-01T02:21:54;20.80;99.90
15877;DHT22;8037;51.666;7.834;2022-08-01T02:24:32;20.80;99.90
15877;DHT22;8037;51.666;7.834;2022-08-01T02:27:01;20.80;99.90
15877;DHT22;8037;51.666;7.834;2022-08-01T02:29:38;20.80;99.90
15877;DHT22;8037;51.666;7.834;2022-08-01T02:32:06;20.80;99.90
15877;DHT22;8037;51.666;7.834;2022-08-01T02:34:34;20.80;99.90
15877;DHT22;8037;51.666;7.834;2022-08-01T02:37:01;20.80;99.90
15877;DHT22;8037;51.666;7.834;2022-08-01T02:39:30;20.70;99.90
15877;DHT22;8037;51.666;7.834;2022-08-01T02:42:00;20.70;99.90
15877;DHT22;8037;51.666;7.834;2022-08-01T02:44:35;20.60;99.90
15877;DHT22;8037;51.666;7.834;2022-08-01T02:47:02;20.60;99.90
15877;DHT22;8037;51.666;7.834;2022-08-01T02:49:35;20.60;99.90
15877;DHT22;8037;51.666;7.834;2022-08-01T02:52:05;20.60;99.90
15877;DHT22;8037;51.666;7.834;2022-08-01T02:54:33;20.60;99.90
15877;DHT22;8037;51.666;7.834;2022-08-01T02:57:00;20.60;99.90
15877;DHT22;8037;51.666;7.834;2022-08-01T02:59:28;20.60;99.90
15877;DHT22;8037;51.666;7.834;2022-08-01T03:01:56;20.60;99.90
15877;DHT22;8037;51.666;7.834;2022-08-01T03:04:25;20.60;99.90
15877;DHT22;8037;51.666;7.834;2022-08-01T03:06:54;20.70;99.90
15877;DHT22;8037;51.666;7.834;2022-08-01T03:09:21;20.70;99.90
15877;DHT22;8037;51.666;7.834;2022-08-01T03:11:49;20.70;99.90
15877;DHT22;8037;51.666;7.834;2022-08-01T03:14:16;20.60;99.90
15877;DHT22;8037;51.666;7.834;2022-08-01T03:16:44;20.70;99.90
15877;DHT22;8037;51.666;7.834;2022-08-01T03:19:12;20.60;99.90
15877;DHT22;8037;51.666;7.834;2022-08-01T03:21:39;20.60;99.90
15877;DHT22;8037;51.666;7.834;2022-08-01T03:24:06;20.60;99.90
15877;DHT22;8037;51.666;7.834;2022-08-01T03:26:35;20.60;99.90
15877;DHT22;8037;51.666;7.834;2022-08-01T03:29:06;20.60;99.90
15877;DHT22;8037;51.666;7.834;2022-08-01T03:31:34;20.60;99.90
15877;DHT22;8037;51.666;7.834;2022-08-01T03:36:28;20.50;99.90
15877;DHT22;8037;51.666;7.834;2022-08-01T03:38:58;20.60;99.90
15877;DHT22;8037;51.666;7.834;2022-08-01T03:41:28;20.50;99.90
15877;DHT22;8037;51.666;7.834;2022-08-01T03:44:03;20.60;99.90
15877;DHT22;8037;51.666;7.834;2022-08-01T03:46:46;20.60;99.90
15877;DHT22;8037;51.666;7.834;2022-08-01T03:49:17;20.60;99.90
15877;DHT22;8037;51.666;7.834;2022-08-01T03:51:45;20.60;99.90
15877;DHT22;8037;51.666;7.834;2022-08-01T03:54:14;20.60;99.90
15877;DHT22;8037;51.666;7.834;2022-08-01T03:56:41;20.60;99.90
15877;DHT22;8037;51.666;7.834;2022-08-01T03:59:09;20.70;99.90
15877;DHT22;8037;51.666;7.834;2022-08-01T04:01:36;20.70;99.90
15877;DHT22;8037;51.666;7.834;2022-08-01T04:06:30;20.70;99.90
15877;DHT22;8037;51.666;7.834;2022-08-01T04:08:56;20.70;99.90
15877;DHT22;8037;51.666;7.834;2022-08-01T04:11:24;20.70;99.90
15877;DHT22;8037;51.666;7.834;2022-08-01T04:13:52;20.70;99.90
15877;DHT22;8037;51.666;7.834;2022-08-01T04:16:18;20.70;99.90
15877;DHT22;8037;51.666;7.834;2022-08-01T04:23:38;20.50;99.90
15877;DHT22;8037;51.666;7.834;2022-08-01T04:26:05;20.50;99.90
15877;DHT22;8037;51.666;7.834;2022-08-01T04:28:34;20.50;99.90
15877;DHT22;8037;51.666;7.834;2022-08-01T04:31:01;20.50;99.90
15877;DHT22;8037;51.666;7.834;2022-08-01T04:33:29;20.50;99.90
15877;DHT22;8037;51.666;7.834;2022-08-01T04:35:57;20.50;99.90
15877;DHT22;8037;51.666;7.834;2022-08-01T04:38:25;20.50;99.90
15877;DHT22;8037;51.666;7.834;2022-08-01T04:40:53;20.50;99.90
15877;DHT22;8037;51.666;7.834;2022-08-01T04:45:46;20.50;99.90
15877;DHT22;8037;51.666;7.834;2022-08-01T04:48:13;20.50;99.90
15877;DHT22;8037;51.666;7.834;2022-08-01T04:50:41;20.50;99.90
15877;DHT22;8037;51.666;7.834;2022-08-01T04:53:21;20.50;99.90
15877;DHT22;8037;51.666;7.834;2022-08-01T04:55:48;20.60;99.90
15877;DHT22;8037;51.666;7.834;2022-08-01T04:58:14;20.60;99.90
15877;DHT22;8037;51.666;7.834;2022-08-01T05:07:59;20.60;99.90
15877;DHT22;8037;51.666;7.834;2022-08-01T05:20:10;20.50;99.90
15877;DHT22;8037;51.666;7.834;2022-08-01T05:25:03;20.60;99.90
15877;DHT22;8037;51.666;7.834;2022-08-01T05:37:14;20.70;99.90
15877;DHT22;8037;51.666;7.834;2022-08-01T05:44:31;20.80;99.90
15877;DHT22;8037;51.666;7.834;2022-08-01T06:01:33;21.10;99.90
15877;DHT22;8037;51.666;7.834;2022-08-01T06:25:53;21.30;99.90
15877;DHT22;8037;51.666;7.834;2022-08-01T06:40:29;21.50;99.90
15877;DHT22;8037;51.666;7.834;2022-08-01T06:45:21;21.50;99.90
15877;DHT22;8037;51.666;7.834;2022-08-01T07:00:06;17.20;99.90
15877;DHT22;8037;51.666;7.834;2022-08-01T07:05:03;21.90;99.90
15877;DHT22;8037;51.666;7.834;2022-08-01T07:09:55;22.00;99.90
15877;DHT22;8037;51.666;7.834;2022-08-01T07:14:47;22.00;99.90
15877;DHT22;8037;51.666;7.834;2022-08-01T07:26:57;22.10;99.90
15877;DHT22;8037;51.666;7.834;2022-08-01T07:29:26;22.10;99.90
15877;DHT22;8037;51.666;7.834;2022-08-01T07:31:54;22.10;99.90
15877;DHT22;8037;51.666;7.834;2022-08-01T07:34:21;22.20;99.90
15877;DHT22;8037;51.666;7.834;2022-08-01T07:36:46;22.30;99.90
15877;DHT22;8037;51.666;7.834;2022-08-01T07:48:56;22.70;99.90
15877;DHT22;8037;51.666;7.834;2022-08-01T07:53:48;23.00;99.90
15877;DHT22;8037;51.666;7.834;2022-08-01T08:13:15;23.90;99.90
15877;DHT22;8037;51.666;7.834;2022-08-01T08:20:33;24.10;99.90
15877;DHT22;8037;51.666;7.834;2022-08-01T08:22:59;24.10;99.90
15877;DHT22;8037;51.666;7.834;2022-08-01T08:25:25;24.20;99.90
15877;DHT22;8037;51.666;7.834;2022-08-01T08:27:51;24.10;99.90
15877;DHT22;8037;51.666;7.834;2022-08-01T08:30:17;24.10;99.90
15877;DHT22;8037;51.666;7.834;2022-08-01T08:37:36;23.90;99.90
15877;DHT22;8037;51.666;7.834;2022-08-01T08:40:06;23.60;99.90
15877;DHT22;8037;51.666;7.834;2022-08-01T08:42:31;23.50;99.90
15877;DHT22;8037;51.666;7.834;2022-08-01T08:47:24;23.20;99.90
15877;DHT22;8037;51.666;7.834;2022-08-01T08:49:53;23.20;99.90
15877;DHT22;8037;51.666;7.834;2022-08-01T08:52:20;23.20;99.90
15877;DHT22;8037;51.666;7.834;2022-08-01T08:54:46;23.20;99.90
15877;DHT22;8037;51.666;7.834;2022-08-01T08:57:14;23.30;99.90
15877;DHT22;8037;51.666;7.834;2022-08-01T09:02:07;23.40;99.90
15877;DHT22;8037;51.666;7.834;2022-08-01T09:04:35;23.50;99.90
15877;DHT22;8037;51.666;7.834;2022-08-01T09:07:04;23.50;99.90
15877;DHT22;8037;51.666;7.834;2022-08-01T09:09:29;23.40;99.90
15877;DHT22;8037;51.666;7.834;2022-08-01T09:11:55;23.50;99.90
15877;DHT22;8037;51.666;7.834;2022-08-01T09:14:21;23.40;99.90
15877;DHT22;8037;51.666;7.834;2022-08-01T09:21:58;23.50;99.90
15877;DHT22;8037;51.666;7.834;2022-08-01T09:24:25;23.60;99.90
15877;DHT22;8037;51.666;7.834;2022-08-01T09:26:52;23.70;99.90
15877;DHT22;8037;51.666;7.834;2022-08-01T09:29:21;23.80;99.90
15877;DHT22;8037;51.666;7.834;2022-08-01T09:34:15;24.00;99.90
15877;DHT22;8037;51.666;7.834;2022-08-01T09:39:14;24.10;99.90
15877;DHT22;8037;51.666;7.834;2022-08-01T09:41:40;24.10;99.90
15877;DHT22;8037;51.666;7.834;2022-08-01T09:46:32;23.90;99.90
15877;DHT22;8037;51.666;7.834;2022-08-01T09:49:03;23.90;99.90
15877;DHT22;8037;51.666;7.834;2022-08-01T09:51:36;24.00;99.90
15877;DHT22;8037;51.666;7.834;2022-08-01T09:54:04;23.90;99.90
15877;DHT22;8037;51.666;7.834;2022-08-01T09:56:41;23.90;99.90
15877;DHT22;8037;51.666;7.834;2022-08-01T10:01:46;23.80;99.90
15877;DHT22;8037;51.666;7.834;2022-08-01T10:04:19;23.80;99.90
15877;DHT22;8037;51.666;7.834;2022-08-01T10:06:46;23.80;99.90
15877;DHT22;8037;51.666;7.834;2022-08-01T10:11:42;23.90;99.90
15877;DHT22;8037;51.666;7.834;2022-08-01T10:14:08;24.10;99.90
15877;DHT22;8037;51.666;7.834;2022-08-01T10:16:35;24.20;99.90
15877;DHT22;8037;51.666;7.834;2022-08-01T10:19:04;24.40;99.90
15877;DHT22;8037;51.666;7.834;2022-08-01T10:21:32;24.40;99.90
15877;DHT22;8037;51.666;7.834;2022-08-01T10:24:00;24.30;99.90
15877;DHT22;8037;51.666;7.834;2022-08-01T10:26:27;24.30;99.90
15877;DHT22;8037;51.666;7.834;2022-08-01T10:28:54;24.20;99.90
15877;DHT22;8037;51.666;7.834;2022-08-01T10:33:46;24.20;99.90
15877;DHT22;8037;51.666;7.834;2022-08-01T10:48:34;24.00;99.90
15877;DHT22;8037;51.666;7.834;2022-08-01T10:51:05;23.70;99.90
15877;DHT22;8037;51.666;7.834;2022-08-01T10:53:31;23.60;99.90
15877;DHT22;8037;51.666;7.834;2022-08-01T10:58:30;23.40;99.90
15877;DHT22;8037;51.666;7.834;2022-08-01T11:06:25;23.10;99.90
15877;DHT22;8037;51.666;7.834;2022-08-01T11:08:52;22.90;99.90
15877;DHT22;8037;51.666;7.834;2022-08-01T11:11:20;22.40;99.90
15877;DHT22;8037;51.666;7.834;2022-08-01T11:16:28;22.00;99.90
15877;DHT22;8037;51.666;7.834;2022-08-01T11:23:50;21.90;99.90
15877;DHT22;8037;51.666;7.834;2022-08-01T11:26:19;22.10;99.90
15877;DHT22;8037;51.666;7.834;2022-08-01T11:33:59;22.30;99.90
15877;DHT22;8037;51.666;7.834;2022-08-01T11:41:28;22.10;99.90
15877;DHT22;8037;51.666;7.834;2022-08-01T11:44:00;21.90;99.90
15877;DHT22;8037;51.666;7.834;2022-08-01T11:46:49;21.80;99.90
15877;DHT22;8037;51.666;7.834;2022-08-01T11:49:26;21.70;99.90
15877;DHT22;8037;51.666;7.834;2022-08-01T11:54:54;21.60;99.90
15877;DHT22;8037;51.666;7.834;2022-08-01T11:57:26;21.70;99.90
15877;DHT22;8037;51.666;7.834;2022-08-01T11:59:57;21.70;99.90
15877;DHT22;8037;51.666;7.834;2022-08-01T12:02:33;21.70;99.90
15877;DHT22;8037;51.666;7.834;2022-08-01T12:07:31;21.70;99.90
15877;DHT22;8037;51.666;7.834;2022-08-01T12:10:08;21.70;99.90
15877;DHT22;8037;51.666;7.834;2022-08-01T12:12:35;21.80;99.90
15877;DHT22;8037;51.666;7.834;2022-08-01T12:15:07;21.80;99.90
15877;DHT22;8037;51.666;7.834;2022-08-01T12:17:36;21.80;99.90
15877;DHT22;8037;51.666;7.834;2022-08-01T12:20:08;21.80;99.90
15877;DHT22;8037;51.666;7.834;2022-08-01T12:22:34;21.90;99.90
15877;DHT22;8037;51.666;7.834;2022-08-01T12:25:11;22.00;99.90
15877;DHT22;8037;51.666;7.834;2022-08-01T12:27:38;22.10;99.90
15877;DHT22;8037;51.666;7.834;2022-08-01T12:30:06;22.10;99.90
15877;DHT22;8037;51.666;7.834;2022-08-01T12:32:34;22.20;99.90
15877;DHT22;8037;51.666;7.834;2022-08-01T12:35:08;22.20;99.90
15877;DHT22;8037;51.666;7.834;2022-08-01T12:37:46;22.30;99.90
15877;DHT22;8037;51.666;7.834;2022-08-01T12:40:42;22.20;99.90
15877;DHT22;8037;51.666;7.834;2022-08-01T12:43:09;22.30;99.90
15877;DHT22;8037;51.666;7.834;2022-08-01T12:45:42;22.20;99.90
15877;DHT22;8037;51.666;7.834;2022-08-01T12:48:11;22.20;99.90
15877;DHT22;8037;51.666;7.834;2022-08-01T12:50:38;22.20;99.90
15877;DHT22;8037;51.666;7.834;2022-08-01T12:53:04;22.30;99.90
15877;DHT22;8037;51.666;7.834;2022-08-01T12:58:10;22.40;99.90
15877;DHT22;8037;51.666;7.834;2022-08-01T13:00:38;22.40;99.90
15877;DHT22;8037;51.666;7.834;2022-08-01T13:03:13;22.50;99.90
15877;DHT22;8037;51.666;7.834;2022-08-01T13:13:14;22.40;99.90
15877;DHT22;8037;51.666;7.834;2022-08-01T13:15:41;22.40;99.90
15877;DHT22;8037;51.666;7.834;2022-08-01T13:18:27;22.40;99.90
15877;DHT22;8037;51.666;7.834;2022-08-01T13:23:38;22.50;99.90
15877;DHT22;8037;51.666;7.834;2022-08-01T13:33:43;22.80;99.90
15877;DHT22;8037;51.666;7.834;2022-08-01T13:38:34;22.60;99.90
15877;DHT22;8037;51.666;7.834;2022-08-01T13:55:55;22.70;99.90
15877;DHT22;8037;51.666;7.834;2022-08-01T13:58:20;22.70;99.90
15877;DHT22;8037;51.666;7.834;2022-08-01T14:00:46;22.70;99.90
15877;DHT22;8037;51.666;7.834;2022-08-01T14:03:12;22.60;99.90
15877;DHT22;8037;51.666;7.834;2022-08-01T14:08:05;22.60;99.90
15877;DHT22;8037;51.666;7.834;2022-08-01T14:12:56;22.70;99.90
15877;DHT22;8037;51.666;7.834;2022-08-01T14:15:23;22.80;99.90
15877;DHT22;8037;51.666;7.834;2022-08-01T14:30:06;22.90;99.90
15877;DHT22;8037;51.666;7.834;2022-08-01T14:34:59;23.00;99.90
15877;DHT22;8037;51.666;7.834;2022-08-01T14:39:51;23.10;99.90
15877;DHT22;8037;51.666;7.834;2022-08-01T14:42:16;23.00;99.90
15877;DHT22;8037;51.666;7.834;2022-08-01T14:44:42;22.80;99.90
15877;DHT22;8037;51.666;7.834;2022-08-01T14:47:07;22.80;99.90
15877;DHT22;8037;51.666;7.834;2022-08-01T14:51:59;22.70;99.90
15877;DHT22;8037;51.666;7.834;2022-08-01T14:56:51;22.80;99.90
15877;DHT22;8037;51.666;7.834;2022-08-01T15:09:02;22.90;99.90
15877;DHT22;8037;51.666;7.834;2022-08-01T15:13:54;22.80;99.90
15877;DHT22;8037;51.666;7.834;2022-08-01T15:16:38;22.90;99.90
15877;DHT22;8037;51.666;7.834;2022-08-01T15:19:04;22.80;99.90
15877;DHT22;8037;51.666;7.834;2022-08-01T15:23:55;23.00;99.90
15877;DHT22;8037;51.666;7.834;2022-08-01T15:31:13;22.70;99.90
15877;DHT22;8037;51.666;7.834;2022-08-01T15:43:22;22.60;99.90
15877;DHT22;8037;51.666;7.834;2022-08-01T15:48:15;22.50;99.90
15877;DHT22;8037;51.666;7.834;2022-08-01T15:55:37;22.50;99.90
15877;DHT22;8037;51.666;7.834;2022-08-01T16:05:22;22.60;99.90
15877;DHT22;8037;51.666;7.834;2022-08-01T16:15:06;22.50;99.90
15877;DHT22;8037;51.666;7.834;2022-08-01T16:17:32;22.50;99.90
15877;DHT22;8037;51.666;7.834;2022-08-01T16:22:24;22.40;99.90
15877;DHT22;8037;51.666;7.834;2022-08-01T16:27:16;22.40;99.90
15877;DHT22;8037;51.666;7.834;2022-08-01T16:29:42;22.30;99.90
15877;DHT22;8037;51.666;7.834;2022-08-01T16:41:51;22.40;99.90
15877;DHT22;8037;51.666;7.834;2022-08-01T16:46:43;22.50;99.90
15877;DHT22;8037;51.666;7.834;2022-08-01T17:01:19;22.60;99.90
15877;DHT22;8037;51.666;7.834;2022-08-01T17:03:45;22.60;99.90
15877;DHT22;8037;51.666;7.834;2022-08-01T17:11:03;22.50;99.90
15877;DHT22;8037;51.666;7.834;2022-08-01T17:15:55;22.50;99.90
15877;DHT22;8037;51.666;7.834;2022-08-01T17:25:40;22.50;99.90
15877;DHT22;8037;51.666;7.834;2022-08-01T17:28:06;22.50;99.90
15877;DHT22;8037;51.666;7.834;2022-08-01T17:35:23;22.50;99.90
15877;DHT22;8037;51.666;7.834;2022-08-01T17:45:11;22.50;99.90
15877;DHT22;8037;51.666;7.834;2022-08-01T17:47:38;22.40;99.90
15877;DHT22;8037;51.666;7.834;2022-08-01T17:50:05;22.40;99.90
15877;DHT22;8037;51.666;7.834;2022-08-01T17:52:32;22.40;99.90
15877;DHT22;8037;51.666;7.834;2022-08-01T17:54:58;22.30;99.90
15877;DHT22;8037;51.666;7.834;2022-08-01T17:57:25;22.30;99.90
15877;DHT22;8037;51.666;7.834;2022-08-01T18:02:17;22.30;99.90
15877;DHT22;8037;51.666;7.834;2022-08-01T18:09:34;22.30;99.90
15877;DHT22;8037;51.666;7.834;2022-08-01T18:12:00;22.30;99.90
15877;DHT22;8037;51.666;7.834;2022-08-01T18:21:46;22.10;99.90
15877;DHT22;8037;51.666;7.834;2022-08-01T18:53:28;21.80;99.90
15877;DHT22;8037;51.666;7.834;2022-08-01T19:10:32;21.50;99.90
15877;DHT22;8037;51.666;7.834;2022-08-01T19:30:03;21.40;99.90
15877;DHT22;8037;51.666;7.834;2022-08-01T19:32:32;21.40;99.90
15877;DHT22;8037;51.666;7.834;2022-08-01T19:35:07;21.40;99.90
15877;DHT22;8037;51.666;7.834;2022-08-01T19:40:02;21.30;99.90
15877;DHT22;8037;51.666;7.834;2022-08-01T19:42:28;21.30;99.90
15877;DHT22;8037;51.666;7.834;2022-08-01T19:52:14;21.10;99.90
15877;DHT22;8037;51.666;7.834;2022-08-01T19:54:43;21.10;99.90
15877;DHT22;8037;51.666;7.834;2022-08-01T19:57:12;21.10;99.90
15877;DHT22;8037;51.666;7.834;2022-08-01T19:59:39;20.90;99.90
15877;DHT22;8037;51.666;7.834;2022-08-01T20:04:31;20.90;99.90
15877;DHT22;8037;51.666;7.834;2022-08-01T20:09:25;20.90;99.90
15877;DHT22;8037;51.666;7.834;2022-08-01T20:11:52;20.90;99.90
15877;DHT22;8037;51.666;7.834;2022-08-01T20:14:20;20.90;99.90
15877;DHT22;8037;51.666;7.834;2022-08-01T20:21:44;20.80;99.90
15877;DHT22;8037;51.666;7.834;2022-08-01T20:24:13;20.80;99.90
15877;DHT22;8037;51.666;7.834;2022-08-01T20:31:31;20.70;99.90
15877;DHT22;8037;51.666;7.834;2022-08-01T20:33:59;20.70;99.90
15877;DHT22;8037;51.666;7.834;2022-08-01T20:36:25;20.70;99.90
15877;DHT22;8037;51.666;7.834;2022-08-01T20:38:53;20.70;99.90
15877;DHT22;8037;51.666;7.834;2022-08-01T20:41:22;20.70;99.90
15877;DHT22;8037;51.666;7.834;2022-08-01T20:43:51;20.70;99.90
15877;DHT22;8037;51.666;7.834;2022-08-01T20:46:17;20.70;99.90
15877;DHT22;8037;51.666;7.834;2022-08-01T20:48:45;20.80;99.90
15877;DHT22;8037;51.666;7.834;2022-08-01T20:53:43;20.70;99.90
15877;DHT22;8037;51.666;7.834;2022-08-01T21:01:31;20.60;99.90
15877;DHT22;8037;51.666;7.834;2022-08-01T21:04:07;20.60;99.90
15877;DHT22;8037;51.666;7.834;2022-08-01T21:06:41;20.60;99.90
15877;DHT22;8037;51.666;7.834;2022-08-01T21:09:09;20.50;99.90
15877;DHT22;8037;51.666;7.834;2022-08-01T21:11:42;20.50;99.90
15877;DHT22;8037;51.666;7.834;2022-08-01T21:14:13;20.50;99.90
15877;DHT22;8037;51.666;7.834;2022-08-01T21:16:51;20.40;99.90
15877;DHT22;8037;51.666;7.834;2022-08-01T21:19:27;20.40;99.90
15877;DHT22;8037;51.666;7.834;2022-08-01T21:22:10;20.40;99.90
15877;DHT22;8037;51.666;7.834;2022-08-01T21:24:47;20.40;99.90
15877;DHT22;8037;51.666;7.834;2022-08-01T21:27:16;23.00;99.90
15877;DHT22;8037;51.666;7.834;2022-08-01T21:29:44;20.30;99.90
15877;DHT22;8037;51.666;7.834;2022-08-01T21:32:12;20.30;99.90
15877;DHT22;8037;51.666;7.834;2022-08-01T21:34:43;20.30;99.90
15877;DHT22;8037;51.666;7.834;2022-08-01T21:37:09;20.20;99.90
15877;DHT22;8037;51.666;7.834;2022-08-01T21:39:35;20.20;99.90
15877;DHT22;8037;51.666;7.834;2022-08-01T21:42:03;20.10;99.90
15877;DHT22;8037;51.666;7.834;2022-08-01T21:44:30;20.10;99.90
15877;DHT22;8037;51.666;7.834;2022-08-01T21:46:59;20.10;99.90
15877;DHT22;8037;51.666;7.834;2022-08-01T21:49:27;20.00;99.90
15877;DHT22;8037;51.666;7.834;2022-08-01T21:51:56;20.00;99.90
15877;DHT22;8037;51.666;7.834;2022-08-01T21:54:27;19.90;99.90
15877;DHT22;8037;51.666;7.834;2022-08-01T22:02:03;19.80;99.90
15877;DHT22;8037;51.666;7.834;2022-08-01T22:04:58;19.80;99.90
15877;DHT22;8037;51.666;7.834;2022-08-01T22:07:26;19.80;99.90
15877;DHT22;8037;51.666;7.834;2022-08-01T22:09:55;19.80;99.90
15877;DHT22;8037;51.666;7.834;2022-08-01T22:12:21;19.70;99.90
15877;DHT22;8037;51.666;7.834;2022-08-01T22:14:48;19.70;99.90
15877;DHT22;8037;51.666;7.834;2022-08-01T22:17:20;19.70;99.90
15877;DHT22;8037;51.666;7.834;2022-08-01T22:19:49;19.70;99.90
15877;DHT22;8037;51.666;7.834;2022-08-01T22:22:20;19.60;99.90
15877;DHT22;8037;51.666;7.834;2022-08-01T22:24:48;19.60;99.90
15877;DHT22;8037;51.666;7.834;2022-08-01T22:27:16;19.60;99.90
15877;DHT22;8037;51.666;7.834;2022-08-01T22:29:55;19.60;99.90
15877;DHT22;8037;51.666;7.834;2022-08-01T22:32:26;19.60;99.90
15877;DHT22;8037;51.666;7.834;2022-08-01T22:34:53;19.60;99.90
15877;DHT22;8037;51.666;7.834;2022-08-01T22:42:12;19.50;99.90
15877;DHT22;8037;51.666;7.834;2022-08-01T22:44:50;19.50;99.90
15877;DHT22;8037;51.666;7.834;2022-08-01T22:50:02;19.40;99.90
15877;DHT22;8037;51.666;7.834;2022-08-01T22:52:29;19.30;99.90
15877;DHT22;8037;51.666;7.834;2022-08-01T22:55:06;19.20;99.90
15877;DHT22;8037;51.666;7.834;2022-08-01T22:57:39;19.10;99.90
15877;DHT22;8037;51.666;7.834;2022-08-01T23:00:08;19.10;99.90
15877;DHT22;8037;51.666;7.834;2022-08-01T23:02:39;19.00;99.90
15877;DHT22;8037;51.666;7.834;2022-08-01T23:05:07;19.00;99.90
15877;DHT22;8037;51.666;7.834;2022-08-01T23:07:38;18.90;99.90
15877;DHT22;8037;51.666;7.834;2022-08-01T23:10:08;18.90;99.90
15877;DHT22;8037;51.666;7.834;2022-08-01T23:12:33;18.90;99.90
15877;DHT22;8037;51.666;7.834;2022-08-01T23:17:28;18.90;99.90
15877;DHT22;8037;51.666;7.834;2022-08-01T23:19:57;19.00;99.90
15877;DHT22;8037;51.666;7.834;2022-08-01T23:22:29;19.00;99.90
15877;DHT22;8037;51.666;7.834;2022-08-01T23:24:56;18.90;99.90
15877;DHT22;8037;51.666;7.834;2022-08-01T23:27:23;19.00;99.90
15877;DHT22;8037;51.666;7.834;2022-08-01T23:29:53;18.90;99.90
15877;DHT22;8037;51.666;7.834;2022-08-01T23:34:46;18.90;99.90
15877;DHT22;8037;51.666;7.834;2022-08-01T23:37:13;18.80;99.90
15877;DHT22;8037;51.666;7.834;2022-08-01T23:39:39;18.80;99.90
15877;DHT22;8037;51.666;7.834;2022-08-01T23:42:05;18.80;99.90
15877;DHT22;8037;51.666;7.834;2022-08-01T23:44:31;18.70;99.90
15877;DHT22;8037;51.666;7.834;2022-08-01T23:46:56;18.60;99.90
15877;DHT22;8037;51.666;7.834;2022-08-01T23:49:23;18.70;99.90
15877;DHT22;8037;51.666;7.834;2022-08-01T23:51:48;18.60;99.90
15877;DHT22;8037;51.666;7.834;2022-08-01T23:56:40;18.60;99.90
